This is the latest recevied weather packets stored in our database for station/object W3JGB. If no packets are shown the sender has not sent any weather packets the latest 10 day(s).
| Time | Temp. | Humidity | Pressure | Rain* | Wind** | Luminosity | Snow |
|---|---|---|---|---|---|---|---|
| 1778083406 | 14.44° C | 99% | 1006.7 hPa | 0 mm | - | 74 W/m² | - |
| 1778083105 | 14.44° C | 99% | 1006.7 hPa | 0 mm | - | 55 W/m² | - |
| 1778082801 | 14.44° C | 99% | 1006.9 hPa | 0 mm | - | 54 W/m² | - |
| 1778081673 | 14.44° C | 99% | 1006.8 hPa | 0 mm | - | 53 W/m² | - |
| 1778081371 | 14.44° C | 99% | 1006.8 hPa | 0 mm | - | 65 W/m² | - |
| 1778081067 | 14.44° C | 99% | 1006.5 hPa | 0 mm | - | 81 W/m² | - |
| 1778080766 | 14.44° C | 99% | 1006.5 hPa | 0 mm | - | 95 W/m² | - |
| 1778080463 | 14.44° C | 99% | 1006.4 hPa | 0 mm | - | 87 W/m² | - |
| 1778080160 | 14.44° C | 99% | 1006.4 hPa | 0 mm | - | 113 W/m² | - |
| 1778079856 | 14.44° C | 99% | 1006.4 hPa | 0 mm | - | 116 W/m² | - |
| 1778079554 | 13.89° C | 99% | 1006.2 hPa | 0 mm | - | 136 W/m² | - |
| 1778079249 | 14.44° C | 99% | 1006.6 hPa | 1.78 mm | - | 87 W/m² | - |
| 1778078947 | 13.89° C | 99% | 1006.6 hPa | 1.78 mm | - | 83 W/m² | - |
| 1778078643 | 13.89° C | 99% | 1006.6 hPa | 0 mm | - | 75 W/m² | - |
| 1778078342 | 13.89° C | 99% | 1006.7 hPa | 1.27 mm | - | 59 W/m² | - |
| 1778078038 | 13.89° C | 99% | 1006.7 hPa | 1.27 mm | - | 49 W/m² | - |
| 1778077737 | 13.89° C | 99% | 1006.9 hPa | 0 mm | - | 40 W/m² | - |
| 1778077434 | 13.89° C | 99% | 1006.9 hPa | 1.78 mm | - | 32 W/m² | - |
| 1778077133 | 13.89° C | 99% | 1006.7 hPa | 3.05 mm | - | 53 W/m² | - |
| 1778076830 | 13.89° C | 99% | 1006.8 hPa | 1.27 mm | - | 34 W/m² | - |
| 1778076528 | 13.89° C | 99% | 1006.7 hPa | 0 mm | - | 44 W/m² | - |
| 1778076225 | 13.89° C | 99% | 1006.8 hPa | 1.78 mm | - | 33 W/m² | - |
| 1778075922 | 13.89° C | 99% | 1006.9 hPa | 1.78 mm | - | 48 W/m² | - |
| 1778075618 | 13.89° C | 99% | 1006.7 hPa | 1.27 mm | - | 62 W/m² | - |
| 1778075315 | 13.89° C | 99% | 1006.9 hPa | 3.05 mm | - | 71 W/m² | - |
* Rain latest hour (hover to see other rain measurements)
** Current wind speed in m/s (hover to see current wind gust speed)